Time;durP1;ratioP1;P1;durP2;ratioP2;P2;SDS_P1;SDS_P2;PMS_P1;PMS_P2;Temp;Humidity;BMP_temperature;BMP_pressure;BME280_temperature;BME280_humidity;BME280_pressure;Samples;Min_cycle;Max_cycle;Signal;HPM_P1;HPM_P2
2023/04/20 00:00:16;;;;;;;11.25;2.55;;;17.20;99.90;;;;;;4951380;29;20208;-75
2023/04/20 00:02:47;;;;;;;9.82;1.83;;;17.20;99.90;;;;;;4949529;29;20248;-76
2023/04/20 00:05:18;;;;;;;7.68;1.88;;;17.10;99.90;;;;;;4949582;29;20208;-75
2023/04/20 00:07:49;;;;;;;12.57;2.33;;;17.10;99.90;;;;;;4947398;29;20197;-75
2023/04/20 00:10:20;;;;;;;11.15;2.50;;;17.10;99.90;;;;;;4952017;29;20200;-76
2023/04/20 00:12:53;;;;;;;8.82;1.90;;;17.10;99.90;;;;;;4955503;28;20227;-74
2023/04/20 00:15:24;;;;;;;12.85;2.17;;;17.10;99.90;;;;;;4955811;28;20194;-77
2023/04/20 00:17:56;;;;;;;12.88;2.30;;;17.00;99.90;;;;;;4955417;28;20201;-75
2023/04/20 00:20:27;;;;;;;9.07;1.83;;;17.10;99.90;;;;;;4952161;28;20204;-77
2023/04/20 00:22:58;;;;;;;11.82;2.97;;;17.00;99.90;;;;;;4955451;29;20237;-77
2023/04/20 00:25:30;;;;;;;11.65;2.20;;;17.00;99.90;;;;;;4955689;28;20555;-73
2023/04/20 00:28:03;;;;;;;10.02;2.00;;;17.10;99.90;;;;;;4955612;28;20728;-73
2023/04/20 00:30:35;;;;;;;10.13;2.10;;;17.00;99.90;;;;;;4955515;29;20193;-78
2023/04/20 00:33:06;;;;;;;10.57;2.10;;;17.00;99.90;;;;;;4955144;28;20684;-77
2023/04/20 00:35:37;;;;;;;9.23;2.42;;;17.00;99.90;;;;;;4955273;29;20193;-79
2023/04/20 00:38:08;;;;;;;9.88;2.60;;;17.00;99.90;;;;;;4955223;29;20193;-72
2023/04/20 00:40:39;;;;;;;12.38;2.25;;;17.00;99.90;;;;;;4955609;29;20193;-73
2023/04/20 00:43:16;;;;;;;11.63;2.30;;;17.00;99.90;;;;;;4955633;29;20189;-79
2023/04/20 00:45:50;;;;;;;8.73;1.85;;;17.00;99.90;;;;;;4955366;28;20204;-78
2023/04/20 00:48:22;;;;;;;11.23;1.88;;;17.00;99.90;;;;;;4955134;28;20200;-73
2023/04/20 00:50:54;;;;;;;8.98;2.30;;;17.00;99.90;;;;;;4955400;29;20201;-73
2023/04/20 00:53:25;;;;;;;12.00;2.25;;;17.00;99.90;;;;;;4955105;29;20225;-73
2023/04/20 00:55:56;;;;;;;12.90;2.40;;;17.00;99.90;;;;;;4954742;28;20193;-77
2023/04/20 00:58:30;;;;;;;7.85;1.90;;;17.00;99.90;;;;;;4955164;28;20544;-75
2023/04/20 01:01:01;;;;;;;12.43;2.50;;;17.00;99.90;;;;;;4954740;28;20192;-73
2023/04/20 01:03:32;;;;;;;12.27;2.67;;;17.00;99.90;;;;;;4955146;29;20228;-73
2023/04/20 01:06:04;;;;;;;11.15;2.33;;;17.00;99.90;;;;;;4955215;28;20192;-73
2023/04/20 01:08:36;;;;;;;10.05;2.28;;;17.00;99.90;;;;;;4955065;29;20197;-78
2023/04/20 01:11:08;;;;;;;10.73;2.40;;;17.00;99.90;;;;;;4955195;28;20287;-73
2023/04/20 01:13:41;;;;;;;19.15;2.20;;;17.00;99.90;;;;;;4954920;29;20693;-74
2023/04/20 01:16:12;;;;;;;13.35;2.58;;;17.10;99.90;;;;;;4954721;29;20570;-75
2023/04/20 01:18:47;;;;;;;13.15;2.50;;;17.10;99.90;;;;;;4947371;29;20201;-75
2023/04/20 01:21:21;;;;;;;11.68;2.20;;;17.10;99.90;;;;;;4943844;29;20201;-73
2023/04/20 01:23:54;;;;;;;8.82;1.95;;;17.20;99.90;;;;;;4935867;29;20967;-73
2023/04/20 01:26:25;;;;;;;11.15;2.10;;;17.20;99.90;;;;;;4935734;29;20198;-74
2023/04/20 01:28:57;;;;;;;13.23;2.28;;;17.20;99.90;;;;;;4935917;29;20197;-77
2023/04/20 01:31:28;;;;;;;11.90;2.70;;;17.20;99.90;;;;;;4935478;29;20197;-77
2023/04/20 01:34:00;;;;;;;12.90;2.50;;;17.30;99.90;;;;;;4935425;29;20689;-74
2023/04/20 01:36:31;;;;;;;13.00;2.38;;;17.30;99.90;;;;;;4935260;29;20280;-76
2023/04/20 01:39:04;;;;;;;12.93;2.35;;;17.30;99.90;;;;;;4950064;29;20260;-73
2023/04/20 01:41:35;;;;;;;9.27;2.15;;;17.40;99.90;;;;;;4954716;29;20189;-76
2023/04/20 01:44:06;;;;;;;9.48;2.10;;;17.40;99.90;;;;;;4954658;29;20200;-74
2023/04/20 01:46:40;;;;;;;16.98;2.65;;;17.50;99.90;;;;;;4954795;29;20276;-77
2023/04/20 01:49:11;;;;;;;13.85;2.70;;;17.50;99.90;;;;;;4954830;28;20194;-73
2023/04/20 01:51:42;;;;;;;12.55;2.85;;;17.60;99.90;;;;;;4954707;29;20575;-73
2023/04/20 01:54:15;;;;;;;8.65;1.90;;;17.60;99.90;;;;;;4954606;28;20248;-73
2023/04/20 01:56:47;;;;;;;13.20;2.28;;;17.60;99.90;;;;;;4951051;28;20201;-73
2023/04/20 01:59:18;;;;;;;9.73;1.95;;;17.60;99.90;;;;;;4953869;28;20198;-74
2023/04/20 02:01:49;;;;;;;15.05;2.88;;;17.70;99.90;;;;;;4954219;28;20232;-73
2023/04/20 02:04:20;;;;;;;16.17;2.60;;;17.70;99.90;;;;;;4953980;29;20676;-74
2023/04/20 02:06:51;;;;;;;12.48;2.42;;;17.60;99.90;;;;;;4952844;29;20644;-73
2023/04/20 02:09:24;;;;;;;11.48;2.20;;;17.70;99.90;;;;;;4954776;28;20264;-75
2023/04/20 02:11:55;;;;;;;12.35;2.25;;;17.70;99.90;;;;;;4953888;29;20197;-73
2023/04/20 02:14:26;;;;;;;9.43;2.30;;;17.70;99.90;;;;;;4957090;29;20236;-74
2023/04/20 02:16:58;;;;;;;9.65;2.10;;;17.70;99.90;;;;;;4958109;28;20193;-74
2023/04/20 02:19:29;;;;;;;11.88;2.63;;;17.80;99.90;;;;;;4958100;28;20233;-75
2023/04/20 02:22:00;;;;;;;10.48;2.35;;;17.80;99.90;;;;;;4957929;28;20203;-74
2023/04/20 02:24:33;;;;;;;11.70;2.42;;;17.90;99.90;;;;;;4957807;28;20204;-74
2023/04/20 02:27:04;;;;;;;15.50;2.90;;;17.90;99.90;;;;;;4957747;29;20189;-74
2023/04/20 02:29:35;;;;;;;14.90;2.50;;;18.00;99.90;;;;;;4952404;29;20197;-74
2023/04/20 02:32:06;;;;;;;11.02;2.15;;;18.00;99.90;;;;;;4938496;29;20197;-75
2023/04/20 02:34:38;;;;;;;19.02;2.40;;;18.20;99.90;;;;;;4938522;29;20226;-75
2023/04/20 02:37:09;;;;;;;13.07;2.55;;;18.20;99.90;;;;;;4938388;29;20194;-75
2023/04/20 02:39:42;;;;;;;11.82;2.30;;;18.30;99.90;;;;;;4949189;29;20197;-74
2023/04/20 02:42:13;;;;;;;17.27;2.17;;;18.30;99.90;;;;;;4951671;29;20209;-75
2023/04/20 02:44:44;;;;;;;10.30;2.00;;;18.30;99.90;;;;;;4954389;29;20201;-75
2023/04/20 02:47:15;;;;;;;10.35;2.35;;;18.30;99.90;;;;;;4954689;29;20216;-75
2023/04/20 02:49:46;;;;;;;13.05;2.30;;;18.30;99.90;;;;;;4952771;29;20197;-75
2023/04/20 02:52:18;;;;;;;9.68;1.90;;;18.30;99.90;;;;;;4957350;29;20203;-75
2023/04/20 02:54:51;;;;;;;13.25;2.25;;;18.20;99.90;;;;;;4957299;28;20597;-75
2023/04/20 02:57:22;;;;;;;13.13;2.33;;;18.10;99.90;;;;;;4951691;28;20569;-75
2023/04/20 02:59:53;;;;;;;11.95;2.38;;;18.10;99.90;;;;;;4955491;28;20205;-75
2023/04/20 03:02:24;;;;;;;12.65;2.40;;;18.10;99.90;;;;;;4954642;28;20236;-75
2023/04/20 03:04:55;;;;;;;8.30;2.10;;;18.20;99.90;;;;;;4957472;28;20209;-75
2023/04/20 03:07:26;;;;;;;9.77;1.92;;;18.10;99.90;;;;;;4955955;28;20197;-75
2023/04/20 03:09:59;;;;;;;11.82;1.98;;;18.20;99.90;;;;;;4954438;28;20204;-75
2023/04/20 03:12:30;;;;;;;9.85;1.60;;;18.10;99.90;;;;;;4953852;29;20653;-75
2023/04/20 03:15:01;;;;;;;12.45;2.13;;;18.10;99.90;;;;;;4954596;29;20217;-75
2023/04/20 03:17:32;;;;;;;13.18;2.28;;;18.10;99.90;;;;;;4953805;29;20208;-75
2023/04/20 03:20:04;;;;;;;11.82;1.65;;;18.00;99.90;;;;;;4950123;28;20196;-76
2023/04/20 03:22:35;;;;;;;9.85;2.00;;;18.00;99.90;;;;;;4954671;28;20618;-76
2023/04/20 03:25:08;;;;;;;8.70;1.88;;;18.00;99.90;;;;;;4940713;28;20573;-76
2023/04/20 03:27:39;;;;;;;10.07;1.60;;;18.00;99.90;;;;;;4955322;29;20649;-75
2023/04/20 03:30:11;;;;;;;13.23;2.10;;;18.00;99.90;;;;;;4955350;29;20196;-76
2023/04/20 03:32:42;;;;;;;9.98;1.92;;;18.00;99.90;;;;;;4954778;29;20606;-76
2023/04/20 03:35:14;;;;;;;12.50;1.88;;;18.00;99.90;;;;;;4957732;28;20695;-77
2023/04/20 03:37:45;;;;;;;11.07;2.05;;;17.90;99.90;;;;;;4955655;28;20193;-76
2023/04/20 03:40:18;;;;;;;10.50;2.03;;;17.90;99.90;;;;;;4952651;28;20205;-75
2023/04/20 03:42:49;;;;;;;11.48;2.17;;;17.90;99.90;;;;;;4958435;28;20196;-78
2023/04/20 03:45:20;;;;;;;9.18;1.80;;;17.90;99.90;;;;;;4958065;28;20205;-76
2023/04/20 03:47:51;;;;;;;12.00;1.95;;;17.90;99.90;;;;;;4951892;29;20201;-76
2023/04/20 03:50:22;;;;;;;13.02;2.10;;;17.90;99.90;;;;;;4950329;29;20204;-76
2023/04/20 03:52:53;;;;;;;13.20;2.35;;;17.90;99.90;;;;;;4955977;29;20204;-76
2023/04/20 03:55:26;;;;;;;12.15;1.98;;;17.90;99.90;;;;;;4955954;29;20228;-76
2023/04/20 03:57:57;;;;;;;11.32;2.25;;;18.00;99.90;;;;;;4956105;29;20197;-76
2023/04/20 04:00:28;;;;;;;13.95;1.90;;;17.90;99.90;;;;;;4955969;29;20189;-76
2023/04/20 04:02:59;;;;;;;10.30;1.90;;;17.90;99.90;;;;;;4956005;29;20248;-76
2023/04/20 04:05:31;;;;;;;11.57;2.30;;;17.90;99.90;;;;;;4956082;29;20201;-76
2023/04/20 04:08:02;;;;;;;11.43;2.10;;;17.90;99.90;;;;;;4956038;29;20217;-76
2023/04/20 04:10:35;;;;;;;14.63;2.40;;;17.90;99.90;;;;;;4956045;29;20239;-76
2023/04/20 04:13:06;;;;;;;9.43;2.10;;;17.90;99.90;;;;;;4955756;29;20196;-75
2023/04/20 04:15:37;;;;;;;10.63;1.90;;;17.90;99.90;;;;;;4953937;29;20213;-76
2023/04/20 04:18:10;;;;;;;10.77;2.13;;;18.00;99.90;;;;;;4955865;29;20196;-76
2023/04/20 04:20:42;;;;;;;9.43;2.10;;;18.00;99.90;;;;;;4955958;28;20200;-76
2023/04/20 04:23:13;;;;;;;11.57;2.28;;;17.90;99.90;;;;;;4955799;29;20197;-76
2023/04/20 04:25:47;;;;;;;9.90;2.05;;;18.00;99.90;;;;;;4955322;29;20205;-76
2023/04/20 04:28:18;;;;;;;8.68;2.00;;;17.90;99.90;;;;;;4955849;29;20224;-76
2023/04/20 04:30:50;;;;;;;8.50;2.08;;;18.00;99.90;;;;;;4954941;28;20200;-76
2023/04/20 04:33:21;;;;;;;10.95;2.08;;;18.00;99.90;;;;;;4955750;29;20193;-76
2023/04/20 04:35:52;;;;;;;9.77;2.20;;;18.00;99.90;;;;;;4955621;29;20227;-76
2023/04/20 04:38:23;;;;;;;7.38;1.77;;;18.10;99.90;;;;;;4955287;29;20192;-76
2023/04/20 04:40:57;;;;;;;11.38;2.30;;;18.10;99.90;;;;;;4955615;28;20340;-76
2023/04/20 04:43:29;;;;;;;8.88;2.05;;;18.10;99.90;;;;;;4955433;28;20197;-76
2023/04/20 04:46:00;;;;;;;7.78;1.77;;;18.10;99.90;;;;;;4955274;29;20248;-76
2023/04/20 04:48:31;;;;;;;10.00;2.08;;;18.20;99.90;;;;;;4955251;29;20193;-77
2023/04/20 04:51:02;;;;;;;7.55;2.10;;;18.20;99.90;;;;;;4955161;29;20280;-76
2023/04/20 04:53:33;;;;;;;11.27;2.45;;;18.30;99.90;;;;;;4953074;29;20208;-76
2023/04/20 04:56:07;;;;;;;16.00;1.95;;;18.40;99.90;;;;;;4955266;29;20204;-77
2023/04/20 04:58:38;;;;;;;8.35;1.73;;;18.40;99.90;;;;;;4955144;28;20192;-77
2023/04/20 05:01:10;;;;;;;10.90;1.88;;;18.40;99.90;;;;;;4954871;28;20235;-76
2023/04/20 05:03:43;;;;;;;10.55;1.83;;;18.50;99.90;;;;;;4955145;29;20193;-77
2023/04/20 05:06:15;;;;;;;10.63;1.95;;;18.50;99.90;;;;;;4955153;29;20659;-77
2023/04/20 05:08:47;;;;;;;11.00;2.00;;;18.50;99.90;;;;;;4955022;29;20197;-77
2023/04/20 05:11:22;;;;;;;7.90;1.73;;;18.60;99.90;;;;;;4955106;29;20216;-77
2023/04/20 05:13:53;;;;;;;10.70;1.92;;;18.50;99.90;;;;;;4954977;28;20199;-78
2023/04/20 05:16:24;;;;;;;11.43;1.83;;;18.50;99.90;;;;;;4955030;29;20204;-77
2023/04/20 05:18:55;;;;;;;11.57;2.00;;;18.50;99.90;;;;;;4954860;29;20196;-77
2023/04/20 05:21:26;;;;;;;8.13;1.90;;;18.50;99.90;;;;;;4955015;29;20544;-78
2023/04/20 05:23:57;;;;;;;10.68;1.75;;;18.60;99.90;;;;;;4954578;29;20284;-78
2023/04/20 05:26:30;;;;;;;7.60;1.70;;;18.50;99.90;;;;;;4954915;29;20192;-78
2023/04/20 05:29:01;;;;;;;6.97;1.45;;;18.50;99.90;;;;;;4954961;29;20279;-78
2023/04/20 05:31:33;;;;;;;9.35;1.65;;;18.50;99.90;;;;;;4955312;28;20659;-77
2023/04/20 05:34:04;;;;;;;7.22;1.73;;;18.50;99.90;;;;;;4954905;28;20680;-77
2023/04/20 05:36:35;;;;;;;6.05;1.55;;;18.50;99.90;;;;;;4954772;28;20219;-78
2023/04/20 05:39:07;;;;;;;9.52;1.50;;;18.60;99.90;;;;;;4954792;29;20252;-77
2023/04/20 05:41:40;;;;;;;11.73;1.98;;;18.50;99.90;;;;;;4954901;29;20189;-78
2023/04/20 05:44:11;;;;;;;8.50;2.10;;;18.40;99.90;;;;;;4958593;28;20197;-77
2023/04/20 05:46:42;;;;;;;9.23;2.20;;;18.40;99.90;;;;;;4958496;29;20565;-78
2023/04/20 05:49:13;;;;;;;8.55;1.77;;;18.40;99.90;;;;;;4958361;29;20645;-78
2023/04/20 05:51:44;;;;;;;16.13;1.83;;;18.30;99.90;;;;;;4958119;29;20661;-78
2023/04/20 05:54:15;;;;;;;7.90;1.90;;;18.30;99.90;;;;;;4958252;29;20200;-78
2023/04/20 05:56:48;;;;;;;9.88;1.63;;;18.30;99.90;;;;;;4958235;29;20200;-77
2023/04/20 05:59:20;;;;;;;7.25;1.50;;;18.20;99.90;;;;;;4958328;29;20216;-78
2023/04/20 06:01:51;;;;;;;6.55;2.00;;;18.20;99.90;;;;;;4958095;28;20236;-78
2023/04/20 06:04:22;;;;;;;9.02;1.73;;;18.20;99.90;;;;;;4958364;29;20196;-78
2023/04/20 06:06:53;;;;;;;9.00;1.75;;;18.20;99.90;;;;;;4958178;28;20201;-78
2023/04/20 06:09:24;;;;;;;7.53;1.60;;;18.20;99.90;;;;;;4958302;29;20569;-78
2023/04/20 06:11:57;;;;;;;8.10;1.40;;;18.20;99.90;;;;;;4958151;28;20542;-78
2023/04/20 06:14:28;;;;;;;5.85;1.50;;;18.10;99.90;;;;;;4958131;29;20707;-78
2023/04/20 06:16:59;;;;;;;10.30;1.55;;;18.10;99.90;;;;;;4958263;28;20755;-77
2023/04/20 06:19:30;;;;;;;8.73;1.48;;;18.10;99.90;;;;;;4958119;28;20237;-77
2023/04/20 06:22:01;;;;;;;7.55;1.60;;;18.00;99.90;;;;;;4958078;28;20200;-77
2023/04/20 06:24:32;;;;;;;9.10;1.85;;;18.00;99.90;;;;;;4957816;29;20641;-78
2023/04/20 06:27:05;;;;;;;7.40;1.50;;;18.00;99.90;;;;;;4957671;29;20203;-78
2023/04/20 06:29:36;;;;;;;7.22;1.40;;;18.00;99.90;;;;;;4957786;29;20220;-78
2023/04/20 06:32:08;;;;;;;7.07;1.60;;;17.90;99.90;;;;;;4957122;29;20193;-78
2023/04/20 06:34:39;;;;;;;9.23;1.80;;;17.90;99.90;;;;;;4957719;28;20701;-77
2023/04/20 06:37:10;;;;;;;11.27;1.90;;;17.90;99.90;;;;;;4949105;28;20661;-78
2023/04/20 06:39:41;;;;;;;6.22;1.63;;;17.80;99.90;;;;;;4957669;28;20192;-77
2023/04/20 06:42:14;;;;;;;7.20;1.67;;;17.80;99.90;;;;;;4957940;28;20201;-77
2023/04/20 06:44:46;;;;;;;7.90;1.50;;;17.80;99.90;;;;;;4957526;29;20193;-77
2023/04/20 06:47:17;;;;;;;5.85;1.50;;;17.80;99.90;;;;;;4957729;28;20276;-77
2023/04/20 06:49:48;;;;;;;8.77;1.75;;;17.80;99.90;;;;;;4957480;28;20193;-77
2023/04/20 06:52:19;;;;;;;6.93;1.40;;;17.70;99.90;;;;;;4955842;29;20217;-77
2023/04/20 06:54:50;;;;;;;5.50;1.55;;;17.70;99.90;;;;;;4956657;28;20576;-78
2023/04/20 06:57:23;;;;;;;6.43;1.50;;;17.70;99.90;;;;;;4953822;28;20204;-77
2023/04/20 06:59:54;;;;;;;8.10;1.73;;;17.70;99.90;;;;;;4955179;28;20193;-78
2023/04/20 07:02:25;;;;;;;7.30;1.38;;;17.60;99.90;;;;;;4955812;28;20271;-77
2023/04/20 07:05:01;;;;;;;6.85;1.70;;;17.60;99.90;;;;;;4956158;28;20201;-77
2023/04/20 07:07:32;;;;;;;10.48;1.70;;;17.60;99.90;;;;;;4957274;29;20197;-78
2023/04/20 07:10:03;;;;;;;5.82;1.60;;;17.60;99.90;;;;;;4951127;29;20203;-78
2023/04/20 07:12:37;;;;;;;5.70;1.40;;;17.50;99.90;;;;;;4951629;29;20732;-78
2023/04/20 07:15:09;;;;;;;5.63;1.63;;;17.50;99.90;;;;;;4957129;29;20688;-77
2023/04/20 07:17:40;;;;;;;7.30;1.50;;;17.50;99.90;;;;;;4952155;29;20209;-77
2023/04/20 07:20:12;;;;;;;6.97;1.70;;;17.50;99.90;;;;;;4952316;29;20259;-77
2023/04/20 07:22:43;;;;;;;11.00;1.83;;;17.50;99.90;;;;;;4952766;29;20201;-77
2023/04/20 07:25:14;;;;;;;7.85;1.80;;;17.50;99.90;;;;;;4952288;29;20212;-77
2023/04/20 07:27:47;;;;;;;6.45;1.80;;;17.50;99.90;;;;;;4943052;28;20208;-78
2023/04/20 07:30:18;;;;;;;8.75;1.80;;;17.50;99.90;;;;;;4948435;29;20204;-77
2023/04/20 07:32:50;;;;;;;10.73;1.55;;;17.40;99.90;;;;;;4951250;29;21863;-78
2023/04/20 07:35:21;;;;;;;5.43;1.58;;;17.40;99.90;;;;;;4952855;29;20264;-78
2023/04/20 07:37:52;;;;;;;5.43;1.63;;;17.40;99.90;;;;;;4953420;29;20203;-78
2023/04/20 07:40:24;;;;;;;6.00;1.33;;;17.40;99.90;;;;;;4957231;28;20227;-78
2023/04/20 07:42:57;;;;;;;10.45;1.85;;;17.40;99.90;;;;;;4956250;28;20649;-78
2023/04/20 07:45:28;;;;;;;8.70;2.25;;;17.40;99.90;;;;;;4956847;28;20196;-79
2023/04/20 07:48:00;;;;;;;6.30;1.35;;;17.30;99.90;;;;;;4956319;28;20196;-78
2023/04/20 07:50:31;;;;;;;9.00;1.85;;;17.30;99.90;;;;;;4954610;28;20201;-77
2023/04/20 07:53:02;;;;;;;4.10;1.50;;;17.30;99.90;;;;;;4954181;28;20665;-78
2023/04/20 07:55:33;;;;;;;10.88;1.85;;;17.30;99.90;;;;;;4956318;29;20221;-78
2023/04/20 07:58:06;;;;;;;8.02;1.92;;;17.30;99.90;;;;;;4956028;29;20212;-78
2023/04/20 08:00:37;;;;;;;6.22;1.65;;;17.30;99.90;;;;;;4953926;29;20221;-78
2023/04/20 08:03:08;;;;;;;5.70;1.58;;;17.30;99.90;;;;;;4943429;29;20240;-78
2023/04/20 08:05:41;;;;;;;11.18;1.80;;;17.30;99.90;;;;;;4948625;28;20216;-79
2023/04/20 08:08:12;;;;;;;6.45;1.60;;;17.30;99.90;;;;;;4951834;28;20197;-78
2023/04/20 08:10:43;;;;;;;6.72;1.52;;;17.20;99.90;;;;;;4955748;29;20208;-79
2023/04/20 08:13:16;;;;;;;7.43;1.73;;;17.20;99.90;;;;;;4952560;28;20660;-79
2023/04/20 08:15:47;;;;;;;7.55;1.60;;;17.20;99.90;;;;;;4955155;28;20217;-79
2023/04/20 08:18:19;;;;;;;7.85;1.95;;;17.30;99.90;;;;;;4953953;28;20212;-79
2023/04/20 08:20:50;;;;;;;6.78;1.60;;;17.30;99.90;;;;;;4951783;28;20193;-78
2023/04/20 08:23:26;;;;;;;4.82;1.25;;;17.30;99.90;;;;;;4953347;28;20197;-79
2023/04/20 08:25:57;;;;;;;6.13;1.48;;;17.30;99.90;;;;;;4952161;29;20196;-79
2023/04/20 08:28:30;;;;;;;9.50;1.80;;;17.30;99.90;;;;;;4953080;29;20680;-79
2023/04/20 08:31:01;;;;;;;6.88;1.98;;;17.30;99.90;;;;;;4950648;28;20205;-79
2023/04/20 08:33:32;;;;;;;9.60;1.85;;;17.30;99.90;;;;;;4953601;29;20653;-79
2023/04/20 08:36:03;;;;;;;11.52;2.15;;;17.30;99.90;;;;;;4951056;28;20221;-78
2023/04/20 08:38:34;;;;;;;6.18;1.58;;;17.30;99.90;;;;;;4953083;28;20564;-79
2023/04/20 08:41:05;;;;;;;8.50;1.80;;;17.30;99.90;;;;;;4954314;29;20672;-79
2023/04/20 08:43:38;;;;;;;6.85;1.70;;;17.30;99.90;;;;;;4946629;28;20711;-79
2023/04/20 08:46:10;;;;;;;6.82;1.80;;;17.30;99.90;;;;;;4949633;28;20588;-79
2023/04/20 08:48:42;;;;;;;7.75;2.00;;;17.20;99.90;;;;;;4954183;28;20200;-79
2023/04/20 08:51:13;;;;;;;8.65;1.65;;;17.20;99.90;;;;;;4952950;28;20208;-79
2023/04/20 08:53:44;;;;;;;5.65;1.63;;;17.20;99.90;;;;;;4954889;28;20197;-79
2023/04/20 08:56:15;;;;;;;7.85;2.03;;;17.20;99.90;;;;;;4954254;28;20212;-79
2023/04/20 08:58:48;;;;;;;5.00;1.65;;;17.20;99.90;;;;;;4955258;29;20204;-79
2023/04/20 09:01:30;;;;;;;6.15;1.80;;;17.20;99.90;;;;;;4951906;28;20244;-79
2023/04/20 09:04:02;;;;;;;6.40;1.63;;;17.20;99.90;;;;;;4953402;29;20211;-79
2023/04/20 09:06:33;;;;;;;6.80;1.58;;;17.20;99.90;;;;;;4952080;28;20204;-80
2023/04/20 09:09:11;;;;;;;9.63;1.85;;;17.20;99.90;;;;;;4951597;29;20193;-78
2023/04/20 09:11:42;;;;;;;7.32;1.50;;;17.30;99.90;;;;;;4953384;29;20212;-78
2023/04/20 09:14:16;;;;;;;4.38;1.55;;;17.20;99.90;;;;;;4948848;28;20255;-80
2023/04/20 09:16:55;;;;;;;6.72;1.42;;;17.30;99.90;;;;;;4952356;28;20246;-78
2023/04/20 09:19:27;;;;;;;8.38;1.70;;;17.30;99.90;;;;;;4952346;28;20200;-79
2023/04/20 09:21:58;;;;;;;6.55;1.60;;;17.30;99.90;;;;;;4954316;29;20560;-79
2023/04/20 09:24:35;;;;;;;9.98;2.03;;;17.30;99.90;;;;;;4956340;29;20247;-78
2023/04/20 09:27:16;;;;;;;5.38;1.55;;;17.40;99.90;;;;;;4957888;28;20675;-78
2023/04/20 09:30:00;;;;;;;3.88;1.70;;;17.40;99.90;;;;;;4956239;29;20209;-80
2023/04/20 09:32:31;;;;;;;7.43;1.83;;;17.40;99.90;;;;;;4953922;29;20205;-79
2023/04/20 09:35:03;;;;;;;8.50;1.75;;;17.40;99.90;;;;;;4954932;29;20284;-79
2023/04/20 09:37:34;;;;;;;4.10;1.58;;;17.40;99.90;;;;;;4955152;28;20664;-79
2023/04/20 09:40:06;;;;;;;6.32;1.73;;;17.50;99.90;;;;;;4956415;29;20557;-80
2023/04/20 09:42:44;;;;;;;8.55;1.60;;;17.50;99.90;;;;;;4953693;28;20700;-80
2023/04/20 09:45:19;;;;;;;7.53;1.95;;;17.50;99.90;;;;;;4955517;29;20669;-80
2023/04/20 09:47:50;;;;;;;8.68;1.70;;;17.50;99.90;;;;;;4957980;28;20671;-80
2023/04/20 09:50:23;;;;;;;7.00;1.60;;;17.50;99.90;;;;;;4957872;29;20207;-80
2023/04/20 09:52:55;;;;;;;6.00;1.70;;;17.50;99.90;;;;;;4955778;28;20211;-80
2023/04/20 09:55:27;;;;;;;7.00;1.70;;;17.50;99.90;;;;;;4957320;28;20197;-80
2023/04/20 09:58:00;;;;;;;8.38;2.05;;;17.50;99.90;;;;;;4956027;28;20193;-81
2023/04/20 10:00:33;;;;;;;10.48;2.03;;;17.60;99.90;;;;;;4957431;28;20661;-80
2023/04/20 10:03:05;;;;;;;7.85;1.88;;;17.50;99.90;;;;;;4955041;28;20594;-80
2023/04/20 10:05:40;;;;;;;6.90;1.90;;;17.60;99.90;;;;;;4955766;28;20288;-80
2023/04/20 10:08:11;;;;;;;7.97;2.10;;;17.50;99.90;;;;;;4957271;28;20236;-80
2023/04/20 10:10:49;;;;;;;8.15;1.95;;;17.50;99.90;;;;;;4957406;28;20252;-80
2023/04/20 10:13:22;;;;;;;7.70;2.00;;;17.60;99.90;;;;;;4956284;29;20216;-80
2023/04/20 10:15:55;;;;;;;8.80;1.60;;;17.50;99.90;;;;;;4955316;28;20221;-80
2023/04/20 10:18:27;;;;;;;9.55;1.77;;;17.60;99.90;;;;;;4953584;28;20225;-80
2023/04/20 10:21:09;;;;;;;5.38;1.40;;;17.60;99.90;;;;;;4952564;29;20564;-81
2023/04/20 10:23:50;;;;;;;5.78;1.52;;;17.60;99.90;;;;;;4951357;28;20263;-81
2023/04/20 10:26:22;;;;;;;6.82;1.63;;;17.60;99.90;;;;;;4950614;29;20217;-81
2023/04/20 10:28:53;;;;;;;6.20;1.58;;;17.60;99.90;;;;;;4955192;28;20197;-81
2023/04/20 10:31:37;;;;;;;5.57;1.38;;;17.60;99.90;;;;;;4954505;28;20653;-80
2023/04/20 10:34:08;;;;;;;7.88;1.70;;;17.60;99.90;;;;;;4953668;28;20227;-80
2023/04/20 10:36:40;;;;;;;5.82;1.77;;;17.50;99.90;;;;;;4956276;28;20224;-80
2023/04/20 10:39:18;;;;;;;10.85;2.08;;;17.50;99.90;;;;;;4954001;28;20605;-79
2023/04/20 10:41:57;;;;;;;7.72;2.33;;;17.50;99.90;;;;;;4955458;28;20197;-78
2023/04/20 10:44:28;;;;;;;7.57;1.55;;;17.50;99.90;;;;;;4955724;28;20272;-80
2023/04/20 10:47:01;;;;;;;7.75;1.88;;;17.50;99.90;;;;;;4952805;28;20567;-79
2023/04/20 10:49:33;;;;;;;9.38;2.15;;;17.50;99.90;;;;;;4953634;28;20205;-79
2023/04/20 10:52:04;;;;;;;4.45;1.70;;;17.50;99.90;;;;;;4936124;29;20197;-80
2023/04/20 10:54:40;;;;;;;9.23;2.40;;;17.50;99.90;;;;;;4949925;29;20568;-79
2023/04/20 10:57:17;;;;;;;7.05;2.00;;;17.40;99.90;;;;;;4953319;28;20241;-79
2023/04/20 10:59:48;;;;;;;5.78;2.22;;;17.40;99.90;;;;;;4956211;29;20208;-79
2023/04/20 11:02:21;;;;;;;9.02;2.15;;;17.40;99.90;;;;;;4952160;28;20244;-79
2023/04/20 11:04:54;;;;;;;9.02;2.00;;;17.40;99.90;;;;;;4952511;28;20197;-79
2023/04/20 11:07:25;;;;;;;7.55;2.10;;;17.30;99.90;;;;;;4954711;28;20569;-79
2023/04/20 11:09:57;;;;;;;5.97;1.65;;;17.30;99.90;;;;;;4953217;28;20649;-79
2023/04/20 11:12:28;;;;;;;5.28;1.83;;;17.30;99.90;;;;;;4952182;29;20296;-79
2023/04/20 11:15:01;;;;;;;6.28;1.90;;;17.30;99.90;;;;;;4954114;29;20208;-80
2023/04/20 11:17:39;;;;;;;8.27;2.15;;;17.30;99.90;;;;;;4951990;28;20224;-79
2023/04/20 11:20:13;;;;;;;5.32;1.75;;;17.30;99.90;;;;;;4953954;28;20204;-80
2023/04/20 11:22:45;;;;;;;8.70;2.05;;;17.20;99.90;;;;;;4954148;28;20203;-78
2023/04/20 11:25:16;;;;;;;8.05;1.98;;;17.20;99.90;;;;;;4953437;28;20204;-78
2023/04/20 11:27:47;;;;;;;5.93;1.80;;;17.20;99.90;;;;;;4953442;29;20204;-79
2023/04/20 11:30:19;;;;;;;6.03;1.67;;;17.20;99.90;;;;;;4954411;28;20204;-80
2023/04/20 11:32:57;;;;;;;5.68;2.08;;;17.10;99.90;;;;;;4954170;29;20716;-79
2023/04/20 11:35:28;;;;;;;9.60;2.17;;;17.10;99.90;;;;;;4951235;28;20205;-80
2023/04/20 11:37:59;;;;;;;7.75;2.22;;;17.10;99.90;;;;;;4954785;28;20217;-80
2023/04/20 11:40:30;;;;;;;8.88;2.53;;;17.10;99.90;;;;;;4945434;28;20216;-79
2023/04/20 11:43:03;;;;;;;7.22;2.30;;;17.10;99.90;;;;;;4955451;29;20278;-79
2023/04/20 11:45:35;;;;;;;9.60;2.60;;;17.10;99.90;;;;;;4954798;28;20201;-79
2023/04/20 11:48:09;;;;;;;11.30;2.67;;;17.00;99.90;;;;;;4955814;29;20204;-80
2023/04/20 11:50:40;;;;;;;10.13;2.90;;;16.90;99.90;;;;;;4952910;28;20661;-80
2023/04/20 11:53:13;;;;;;;14.65;2.78;;;16.80;99.90;;;;;;4956072;28;20646;-79
2023/04/20 11:55:44;;;;;;;10.75;2.40;;;16.80;99.90;;;;;;4958337;28;20209;-79
2023/04/20 11:58:15;;;;;;;9.05;2.42;;;16.80;99.90;;;;;;4956143;29;20684;-80
2023/04/20 12:00:46;;;;;;;9.20;2.85;;;16.70;99.90;;;;;;4956176;29;20224;-80
2023/04/20 12:03:19;;;;;;;8.18;2.15;;;16.70;99.90;;;;;;4955990;29;20236;-80
2023/04/20 12:05:50;;;;;;;6.35;2.28;;;16.70;99.90;;;;;;4956224;29;20200;-79
2023/04/20 12:08:22;;;;;;;6.03;2.22;;;16.70;99.90;;;;;;4956061;29;20201;-80
2023/04/20 12:10:53;;;;;;;6.43;2.17;;;16.70;99.90;;;;;;4938575;29;20666;-80
2023/04/20 12:13:24;;;;;;;5.82;2.20;;;16.70;99.90;;;;;;4956069;29;20196;-80
2023/04/20 12:15:56;;;;;;;7.03;2.50;;;16.70;99.90;;;;;;4954430;29;20221;-80
2023/04/20 12:18:29;;;;;;;7.78;2.15;;;16.70;99.90;;;;;;4954003;28;20205;-81
2023/04/20 12:21:00;;;;;;;6.93;2.22;;;16.70;99.90;;;;;;4954803;28;20196;-80
2023/04/20 12:23:31;;;;;;;8.23;2.53;;;16.70;99.90;;;;;;4973095;28;20668;-80
2023/04/20 12:26:03;;;;;;;6.40;2.40;;;16.60;99.90;;;;;;4973219;28;20196;-80
2023/04/20 12:28:34;;;;;;;5.40;2.22;;;16.60;99.90;;;;;;4964331;28;20697;-81
2023/04/20 12:31:05;;;;;;;8.80;2.28;;;16.60;99.90;;;;;;4955215;28;20193;-80
2023/04/20 12:33:38;;;;;;;10.77;2.70;;;16.50;99.90;;;;;;4964290;28;20655;-81
2023/04/20 12:36:09;;;;;;;7.93;2.40;;;16.50;99.90;;;;;;4974799;28;20572;-81
2023/04/20 12:38:40;;;;;;;7.18;2.00;;;16.50;99.90;;;;;;4974820;28;20579;-81
2023/04/20 12:41:15;;;;;;;7.00;2.17;;;16.50;99.90;;;;;;4974825;28;20561;-81
2023/04/20 12:43:46;;;;;;;5.32;2.22;;;16.50;99.90;;;;;;4961885;28;20193;-80
2023/04/20 12:46:17;;;;;;;7.85;2.33;;;16.50;99.90;;;;;;4953271;29;20201;-81
2023/04/20 12:48:50;;;;;;;6.97;2.28;;;16.50;99.90;;;;;;4953953;28;20212;-79
2023/04/20 12:51:22;;;;;;;7.03;2.13;;;16.50;99.90;;;;;;4954821;28;20197;-81
2023/04/20 12:53:53;;;;;;;6.20;2.20;;;16.50;99.90;;;;;;4953404;29;20675;-80
2023/04/20 12:56:24;;;;;;;8.85;2.10;;;16.50;99.90;;;;;;4953334;29;20212;-80
2023/04/20 12:58:55;;;;;;;4.72;1.80;;;16.50;99.90;;;;;;4955296;29;20200;-80
2023/04/20 13:01:26;;;;;;;4.00;1.90;;;16.50;99.90;;;;;;4954733;28;20314;-81
2023/04/20 13:03:59;;;;;;;6.10;2.10;;;16.50;99.90;;;;;;4954976;29;20215;-80
2023/04/20 13:06:31;;;;;;;6.45;2.25;;;16.40;99.90;;;;;;4953338;29;20208;-80